Terminal Aerodrome Forecast
Issued by NWS Wilmington, OH

Current Version | Previous Version | Graphics & Text | Print | Product List | Glossary On
Versions: 1 2 3 4 5 6 7 8 9 10 11 12 13 14 15 16 17 18 19 20 21
000
FTUS41 KILN 292300
TAFILN
TAF
KILN 292332Z 3000/3024 25004KT P6SM SCT050 BKN110
     FM300300 24003KT P6SM FEW040
     FM301500 25008KT P6SM BKN045
     FM302100 26008KT P6SM SCT050=

USA.gov is the U.S. government's official web portal to all federal, state and local government web resources and services.